createdAt,value
2022-08-28T00:00:01.693Z,0.00
2022-08-28T00:01:01.728Z,0.00
2022-08-28T00:02:01.807Z,0.00
2022-08-28T00:03:01.931Z,0.00
2022-08-28T00:04:01.983Z,0.00
2022-08-28T00:05:02.137Z,0.00
2022-08-28T00:06:02.131Z,0.00
2022-08-28T00:07:02.182Z,0.00
2022-08-28T00:08:02.261Z,0.00
2022-08-28T00:09:02.314Z,0.00
2022-08-28T00:10:02.513Z,0.00
2022-08-28T00:11:02.470Z,0.00
2022-08-28T00:12:02.577Z,0.00
2022-08-28T00:13:02.628Z,0.00
2022-08-28T00:14:02.709Z,0.00
2022-08-28T00:15:02.772Z,0.00
2022-08-28T00:16:02.901Z,0.00
2022-08-28T00:17:02.926Z,0.00
2022-08-28T00:18:03.007Z,0.00
2022-08-28T00:19:03.597Z,0.00
2022-08-28T00:20:03.164Z,0.00
2022-08-28T00:21:03.210Z,0.00
2022-08-28T00:22:03.285Z,0.00
2022-08-28T00:23:03.335Z,0.00
2022-08-28T00:24:03.415Z,0.00
2022-08-28T00:25:03.479Z,0.00
2022-08-28T00:26:03.561Z,0.00
2022-08-28T00:27:03.619Z,0.00
2022-08-28T00:28:05.301Z,0.00
2022-08-28T00:29:03.791Z,0.00
2022-08-28T00:30:03.896Z,0.00
2022-08-28T00:31:03.986Z,0.00
2022-08-28T00:32:04.019Z,0.00
2022-08-28T00:33:04.071Z,0.00
2022-08-28T00:34:04.170Z,0.00
2022-08-28T00:35:04.249Z,0.00
2022-08-28T00:36:04.332Z,0.00
2022-08-28T00:37:04.383Z,0.00
2022-08-28T00:38:04.488Z,0.00
2022-08-28T00:39:04.555Z,0.00
2022-08-28T00:40:04.708Z,0.00
2022-08-28T00:41:04.909Z,0.00
2022-08-28T00:42:04.803Z,0.00
2022-08-28T00:43:04.853Z,0.00
2022-08-28T00:44:04.931Z,0.00
2022-08-28T00:45:05.006Z,0.00
2022-08-28T00:46:05.152Z,0.00
2022-08-28T00:47:05.174Z,0.00
2022-08-28T00:48:05.300Z,0.00
2022-08-28T00:49:05.323Z,0.00
2022-08-28T00:50:05.425Z,0.00
2022-08-28T00:51:05.472Z,0.00
2022-08-28T00:52:05.548Z,0.00
2022-08-28T00:53:05.644Z,0.00
2022-08-28T00:54:07.902Z,0.00
2022-08-28T00:55:05.828Z,0.00
2022-08-28T00:56:08.629Z,0.00
2022-08-28T00:57:05.949Z,0.00
2022-08-28T00:58:06.122Z,0.00
2022-08-28T00:59:06.130Z,0.00
2022-08-28T01:00:06.229Z,0.00
2022-08-28T01:01:06.274Z,0.00
2022-08-28T01:02:06.493Z,0.00
2022-08-28T01:03:06.527Z,0.00
2022-08-28T01:04:06.560Z,0.00
2022-08-28T01:05:06.586Z,0.00
2022-08-28T01:06:06.665Z,0.00
2022-08-28T01:07:06.718Z,0.00
2022-08-28T01:08:06.848Z,0.00
2022-08-28T01:09:06.877Z,0.00
2022-08-28T01:10:06.949Z,0.00
2022-08-28T01:11:07.030Z,0.00
2022-08-28T01:12:07.079Z,0.00
2022-08-28T01:13:07.155Z,0.00
2022-08-28T01:14:07.205Z,0.00
2022-08-28T01:15:07.309Z,0.00
2022-08-28T01:16:07.421Z,0.00
2022-08-28T01:17:07.432Z,0.00
2022-08-28T01:18:08.425Z,0.00
2022-08-28T01:19:07.591Z,0.00
2022-08-28T01:20:07.673Z,0.00
2022-08-28T01:21:07.716Z,0.00
2022-08-28T01:22:07.767Z,0.00
2022-08-28T01:23:07.846Z,0.00
2022-08-28T01:24:07.902Z,0.00
2022-08-28T01:25:08.003Z,0.00
2022-08-28T01:26:10.791Z,0.00
2022-08-28T01:27:08.145Z,0.00
2022-08-28T01:28:08.293Z,0.00
2022-08-28T01:29:08.292Z,0.00
2022-08-28T01:30:08.360Z,0.00
2022-08-28T01:31:08.514Z,0.00
2022-08-28T01:32:08.509Z,0.00
2022-08-28T01:33:08.584Z,0.00
2022-08-28T01:34:08.635Z,0.00
2022-08-28T01:35:08.737Z,0.00
2022-08-28T01:36:08.786Z,0.00
2022-08-28T01:37:08.871Z,0.00
2022-08-28T01:38:08.937Z,0.00
2022-08-28T01:39:09.009Z,0.00
2022-08-28T01:40:09.117Z,0.00
2022-08-28T01:41:09.134Z,0.00
2022-08-28T01:42:09.187Z,0.00
2022-08-28T01:43:09.267Z,0.00
2022-08-28T01:44:09.324Z,0.00
2022-08-28T01:45:09.444Z,0.00
2022-08-28T01:46:09.578Z,0.00
2022-08-28T01:47:09.588Z,0.00
2022-08-28T01:48:09.868Z,0.00
2022-08-28T01:49:09.743Z,0.00
2022-08-28T01:50:09.809Z,0.00
2022-08-28T01:51:09.886Z,0.00
2022-08-28T01:52:09.981Z,0.00
2022-08-28T01:53:12.382Z,0.00
2022-08-28T01:54:10.134Z,0.00
2022-08-28T01:55:10.238Z,0.00
2022-08-28T01:56:10.286Z,0.00
2022-08-28T01:57:10.356Z,0.00
2022-08-28T01:58:10.583Z,0.00
2022-08-28T01:59:10.525Z,0.00
2022-08-28T02:00:10.591Z,0.00
2022-08-28T02:01:10.763Z,0.00
2022-08-28T02:02:10.870Z,0.00
2022-08-28T02:03:10.823Z,0.00
2022-08-28T02:04:10.917Z,0.00
2022-08-28T02:05:10.978Z,0.00
2022-08-28T02:06:11.051Z,0.00
2022-08-28T02:07:11.123Z,0.00
2022-08-28T02:08:11.177Z,0.00
2022-08-28T02:09:14.222Z,0.00
2022-08-28T02:10:11.367Z,0.00
2022-08-28T02:11:11.447Z,0.00
2022-08-28T02:12:11.501Z,0.00
2022-08-28T02:13:11.577Z,0.00
2022-08-28T02:14:11.628Z,0.00
2022-08-28T02:15:11.725Z,0.00
2022-08-28T02:16:11.820Z,0.00
2022-08-28T02:17:11.842Z,0.00
2022-08-28T02:18:12.087Z,0.00
2022-08-28T02:19:11.991Z,0.00
2022-08-28T02:20:12.052Z,0.00
2022-08-28T02:21:12.133Z,0.00
2022-08-28T02:22:12.187Z,0.00
2022-08-28T02:23:12.288Z,0.00
2022-08-28T02:24:12.365Z,0.00
2022-08-28T02:25:12.462Z,0.00
2022-08-28T02:26:12.509Z,0.00
2022-08-28T02:27:12.589Z,0.00
2022-08-28T02:28:12.800Z,0.00
2022-08-28T02:29:12.763Z,0.00
2022-08-28T02:30:12.847Z,0.00
2022-08-28T02:31:13.039Z,0.00
2022-08-28T02:32:12.972Z,0.00
2022-08-28T02:33:13.070Z,0.00
2022-08-28T02:34:13.124Z,0.00
2022-08-28T02:35:13.217Z,0.00
2022-08-28T02:36:13.264Z,0.00
2022-08-28T02:37:13.372Z,0.00
2022-08-28T02:38:13.542Z,0.00
2022-08-28T02:39:13.510Z,0.00
2022-08-28T02:40:13.622Z,0.00
2022-08-28T02:41:13.653Z,0.00
2022-08-28T02:42:13.706Z,0.00
2022-08-28T02:43:13.812Z,0.00
2022-08-28T02:44:13.892Z,0.00
2022-08-28T02:45:14.107Z,0.00
2022-08-28T02:46:14.061Z,0.00
2022-08-28T02:47:14.127Z,0.00
2022-08-28T02:48:17.009Z,0.00
2022-08-28T02:49:14.289Z,0.00
2022-08-28T02:50:14.377Z,0.00
2022-08-28T02:51:14.459Z,0.00
2022-08-28T02:52:14.509Z,0.00
2022-08-28T02:53:14.588Z,0.00
2022-08-28T02:54:14.769Z,0.00
2022-08-28T02:55:14.749Z,0.00
2022-08-28T02:56:14.793Z,0.00
2022-08-28T02:57:14.871Z,0.00
2022-08-28T02:58:14.922Z,0.00
2022-08-28T02:59:15.021Z,0.00
2022-08-28T03:00:15.112Z,0.00
2022-08-28T03:01:15.233Z,0.00
2022-08-28T03:02:15.313Z,0.00
2022-08-28T03:03:15.334Z,0.00
2022-08-28T03:04:15.386Z,0.00
2022-08-28T03:05:15.572Z,0.00
2022-08-28T03:06:15.529Z,0.00
2022-08-28T03:07:15.627Z,0.00
2022-08-28T03:08:15.678Z,0.00
2022-08-28T03:09:15.776Z,0.00
2022-08-28T03:10:15.839Z,0.00
2022-08-28T03:11:15.903Z,0.00
2022-08-28T03:12:15.957Z,0.00
2022-08-28T03:13:26.514Z,0.00
2022-08-28T03:14:16.094Z,0.00
2022-08-28T03:15:16.204Z,0.00
2022-08-28T03:16:16.293Z,0.00
2022-08-28T03:17:16.325Z,0.00
2022-08-28T03:18:16.649Z,0.00
2022-08-28T03:19:16.457Z,0.00
2022-08-28T03:20:16.519Z,0.00
2022-08-28T03:21:16.601Z,0.00
2022-08-28T03:22:16.653Z,0.00
2022-08-28T03:23:16.736Z,0.00
2022-08-28T03:24:16.784Z,0.00
2022-08-28T03:25:16.911Z,0.00
2022-08-28T03:26:16.957Z,0.00
2022-08-28T03:27:17.036Z,0.00
2022-08-28T03:28:17.088Z,0.00
2022-08-28T03:29:17.167Z,0.00
2022-08-28T03:30:17.233Z,0.00
2022-08-28T03:31:17.361Z,0.00
2022-08-28T03:32:17.392Z,0.00
2022-08-28T03:33:17.491Z,0.00
2022-08-28T03:34:17.564Z,0.00
2022-08-28T03:35:17.674Z,0.00
2022-08-28T03:36:17.721Z,0.00
2022-08-28T03:37:17.820Z,0.00
2022-08-28T03:38:17.874Z,0.00
2022-08-28T03:39:17.952Z,0.00
2022-08-28T03:40:18.072Z,0.00
2022-08-28T03:41:18.084Z,0.00
2022-08-28T03:42:18.136Z,0.00
2022-08-28T03:43:18.222Z,0.00
2022-08-28T03:44:18.271Z,0.00
2022-08-28T03:45:18.383Z,0.00
2022-08-28T03:46:18.488Z,0.00
2022-08-28T03:47:18.506Z,0.00
2022-08-28T03:48:18.583Z,0.00
2022-08-28T03:49:18.662Z,0.00
2022-08-28T03:50:18.736Z,0.00
2022-08-28T03:51:18.801Z,0.00
2022-08-28T03:52:18.855Z,0.00
2022-08-28T03:53:18.934Z,0.00
2022-08-28T03:54:18.990Z,0.00
2022-08-28T03:55:19.089Z,0.00
2022-08-28T03:56:19.161Z,0.00
2022-08-28T03:57:19.259Z,0.00
2022-08-28T03:58:19.421Z,0.00
2022-08-28T03:59:19.418Z,0.00
2022-08-28T04:00:19.490Z,0.00
2022-08-28T04:01:19.622Z,0.00
2022-08-28T04:02:19.637Z,0.00
2022-08-28T04:03:19.778Z,0.00
2022-08-28T04:04:19.789Z,0.00
2022-08-28T04:05:20.151Z,0.00
2022-08-28T04:06:19.954Z,0.00
2022-08-28T04:07:20.022Z,0.00
2022-08-28T04:08:20.080Z,0.00
2022-08-28T04:09:20.163Z,0.00
2022-08-28T04:10:20.238Z,0.00
2022-08-28T04:11:20.296Z,0.00
2022-08-28T04:12:20.349Z,0.00
2022-08-28T04:13:20.432Z,0.00
2022-08-28T04:14:20.489Z,0.00
2022-08-28T04:15:20.601Z,0.00
2022-08-28T04:16:20.802Z,0.00
2022-08-28T04:17:20.730Z,0.00
2022-08-28T04:18:20.795Z,0.00
2022-08-28T04:19:20.891Z,0.00
2022-08-28T04:20:20.976Z,0.00
2022-08-28T04:21:21.053Z,0.00
2022-08-28T04:22:21.107Z,0.00
2022-08-28T04:23:21.203Z,0.00
2022-08-28T04:24:21.254Z,0.00
2022-08-28T04:25:21.376Z,0.00
2022-08-28T04:26:21.421Z,0.00
2022-08-28T04:27:21.502Z,0.00
2022-08-28T04:28:21.556Z,0.00
2022-08-28T04:29:21.639Z,0.00
2022-08-28T04:30:21.700Z,0.00
2022-08-28T04:31:32.467Z,0.00
2022-08-28T04:32:21.873Z,0.00
2022-08-28T04:33:21.945Z,0.00
2022-08-28T04:34:22.005Z,0.00
2022-08-28T04:35:22.388Z,5.62
2022-08-28T04:36:22.166Z,5.62
2022-08-28T04:37:22.816Z,5.62
2022-08-28T04:38:22.309Z,5.62
2022-08-28T04:39:22.387Z,5.62
2022-08-28T04:40:22.770Z,5.62
2022-08-28T04:41:22.515Z,11.25
2022-08-28T04:42:22.568Z,11.25
2022-08-28T04:43:22.649Z,11.25
2022-08-28T04:44:22.721Z,11.25
2022-08-28T04:45:22.815Z,11.25
2022-08-28T04:46:22.862Z,16.88
2022-08-28T04:47:22.940Z,16.88
2022-08-28T04:48:22.993Z,16.88
2022-08-28T04:49:23.073Z,16.88
2022-08-28T04:50:23.141Z,16.88
2022-08-28T04:51:23.221Z,22.50
2022-08-28T04:52:23.278Z,22.50
2022-08-28T04:53:23.359Z,22.50
2022-08-28T04:54:23.414Z,28.12
2022-08-28T04:55:24.391Z,28.12
2022-08-28T04:56:23.577Z,28.12
2022-08-28T04:57:23.658Z,28.12
2022-08-28T04:58:24.362Z,33.75
2022-08-28T04:59:23.795Z,33.75
2022-08-28T05:00:23.857Z,39.38
2022-08-28T05:01:23.998Z,39.38
2022-08-28T05:02:24.058Z,45.00
2022-08-28T05:03:24.119Z,45.00
2022-08-28T05:04:24.185Z,45.00
2022-08-28T05:05:24.290Z,50.62
2022-08-28T05:06:24.338Z,50.62
2022-08-28T05:07:24.424Z,56.25
2022-08-28T05:08:24.477Z,56.25
2022-08-28T05:09:24.558Z,61.88
2022-08-28T05:10:24.644Z,61.88
2022-08-28T05:11:34.256Z,67.50
2022-08-28T05:12:24.788Z,67.50
2022-08-28T05:13:24.872Z,73.12
2022-08-28T05:14:24.942Z,78.75
2022-08-28T05:15:25.040Z,78.75
2022-08-28T05:16:25.098Z,84.38
2022-08-28T05:17:25.177Z,90.00
2022-08-28T05:18:25.240Z,95.62
2022-08-28T05:19:25.326Z,101.25
2022-08-28T05:20:25.422Z,106.88
2022-08-28T05:21:25.494Z,118.12
2022-08-28T05:22:25.548Z,118.12
2022-08-28T05:23:25.764Z,129.38
2022-08-28T05:24:25.694Z,135.00
2022-08-28T05:25:26.061Z,140.62
2022-08-28T05:26:26.751Z,151.88
2022-08-28T05:27:25.932Z,157.50
2022-08-28T05:28:26.011Z,157.50
2022-08-28T05:29:26.098Z,157.50
2022-08-28T05:30:26.200Z,157.50
2022-08-28T05:31:26.314Z,157.50
2022-08-28T05:32:26.345Z,157.50
2022-08-28T05:33:26.436Z,157.50
2022-08-28T05:34:26.518Z,163.12
2022-08-28T05:35:26.682Z,163.12
2022-08-28T05:36:32.446Z,168.75
2022-08-28T05:37:26.742Z,174.38
2022-08-28T05:38:26.825Z,180.00
2022-08-28T05:39:26.873Z,185.62
2022-08-28T05:40:27.043Z,196.88
2022-08-28T05:41:27.013Z,202.50
2022-08-28T05:42:30.763Z,208.12
2022-08-28T05:43:27.169Z,213.75
2022-08-28T05:44:27.252Z,219.38
2022-08-28T05:45:27.329Z,225.00
2022-08-28T05:46:27.387Z,230.62
2022-08-28T05:47:27.436Z,241.88
2022-08-28T05:48:27.514Z,253.12
2022-08-28T05:49:27.584Z,258.75
2022-08-28T05:50:27.679Z,264.38
2022-08-28T05:51:27.726Z,270.00
2022-08-28T05:52:27.807Z,270.00
2022-08-28T05:53:27.856Z,270.00
2022-08-28T05:54:29.140Z,270.00
2022-08-28T05:55:28.026Z,264.38
2022-08-28T05:56:28.100Z,258.75
2022-08-28T05:57:28.150Z,253.12
2022-08-28T05:58:28.232Z,253.12
2022-08-28T05:59:28.304Z,247.50
2022-08-28T06:00:28.395Z,241.88
2022-08-28T06:01:28.535Z,241.88
2022-08-28T06:02:28.545Z,241.88
2022-08-28T06:03:28.597Z,241.88
2022-08-28T06:04:28.765Z,241.88
2022-08-28T06:05:28.787Z,241.88
2022-08-28T06:06:28.825Z,241.88
2022-08-28T06:07:28.905Z,241.88
2022-08-28T06:08:28.981Z,247.50
2022-08-28T06:09:30.074Z,253.12
2022-08-28T06:10:29.176Z,258.75
2022-08-28T06:11:30.880Z,264.38
2022-08-28T06:12:29.297Z,275.62
2022-08-28T06:13:29.375Z,286.88
2022-08-28T06:14:29.458Z,298.12
2022-08-28T06:15:29.678Z,303.75
2022-08-28T06:16:29.693Z,315.00
2022-08-28T06:17:29.685Z,326.25
2022-08-28T06:18:29.778Z,337.50
2022-08-28T06:19:29.825Z,354.38
2022-08-28T06:20:29.940Z,365.62
2022-08-28T06:21:29.998Z,382.50
2022-08-28T06:22:30.075Z,399.38
2022-08-28T06:23:30.162Z,405.00
2022-08-28T06:24:30.256Z,421.88
2022-08-28T06:25:30.368Z,444.38
2022-08-28T06:26:30.441Z,472.50
2022-08-28T06:27:30.527Z,500.62
2022-08-28T06:28:30.601Z,545.62
2022-08-28T06:29:30.692Z,585.00
2022-08-28T06:30:30.782Z,1091.25
2022-08-28T06:31:33.376Z,2700.00
2022-08-28T06:32:30.971Z,2441.25
2022-08-28T06:33:30.948Z,1918.12
2022-08-28T06:34:31.019Z,1226.25
2022-08-28T06:35:31.227Z,973.12
2022-08-28T06:36:31.192Z,832.50
2022-08-28T06:37:31.230Z,871.88
2022-08-28T06:38:31.303Z,815.62
2022-08-28T06:39:31.356Z,826.88
2022-08-28T06:40:31.566Z,731.25
2022-08-28T06:41:31.539Z,770.62
2022-08-28T06:42:31.608Z,888.75
2022-08-28T06:43:31.688Z,1012.50
2022-08-28T06:44:31.801Z,877.50
2022-08-28T06:45:31.966Z,933.75
2022-08-28T06:46:31.969Z,826.88
2022-08-28T06:47:32.052Z,759.38
2022-08-28T06:48:32.126Z,759.38
2022-08-28T06:49:32.177Z,759.38
2022-08-28T06:50:32.298Z,810.00
2022-08-28T06:51:32.369Z,826.88
2022-08-28T06:52:32.478Z,1215.00
2022-08-28T06:53:32.560Z,990.00
2022-08-28T06:54:32.650Z,911.25
2022-08-28T06:55:32.843Z,911.25
2022-08-28T06:56:32.828Z,950.62
2022-08-28T06:57:32.917Z,939.38
2022-08-28T06:58:33.009Z,1130.62
2022-08-28T06:59:33.090Z,1136.25
2022-08-28T07:00:33.175Z,1057.50
2022-08-28T07:01:33.364Z,984.38
2022-08-28T07:02:33.352Z,973.12
2022-08-28T07:03:33.398Z,1018.12
2022-08-28T07:04:33.467Z,1198.12
2022-08-28T07:05:33.569Z,1051.88
2022-08-28T07:06:33.639Z,1175.62
2022-08-28T07:07:33.690Z,1350.00
2022-08-28T07:08:33.763Z,1535.62
2022-08-28T07:09:33.844Z,1074.38
2022-08-28T07:10:33.939Z,1035.00
2022-08-28T07:11:33.976Z,1040.62
2022-08-28T07:12:34.090Z,1113.75
2022-08-28T07:13:34.167Z,3273.75
2022-08-28T07:14:34.242Z,3605.62
2022-08-28T07:15:34.438Z,3712.50
2022-08-28T07:16:34.394Z,3695.62
2022-08-28T07:17:34.475Z,2458.12
2022-08-28T07:18:34.552Z,1732.50
2022-08-28T07:19:34.638Z,1861.88
2022-08-28T07:20:34.845Z,1372.50
2022-08-28T07:21:38.233Z,1428.75
2022-08-28T07:22:34.883Z,1080.00
2022-08-28T07:23:34.955Z,1051.88
2022-08-28T07:24:35.029Z,1119.38
2022-08-28T07:25:35.132Z,1051.88
2022-08-28T07:26:35.747Z,1046.25
2022-08-28T07:27:35.267Z,1068.75
2022-08-28T07:28:35.357Z,1125.00
2022-08-28T07:29:35.439Z,1158.75
2022-08-28T07:30:35.557Z,1265.62
2022-08-28T07:31:35.592Z,1310.62
2022-08-28T07:32:35.655Z,1963.12
2022-08-28T07:33:35.726Z,1085.62
2022-08-28T07:34:35.797Z,1051.88
2022-08-28T07:35:35.908Z,1068.75
2022-08-28T07:36:35.991Z,1141.88
2022-08-28T07:37:36.055Z,1108.12
2022-08-28T07:38:36.163Z,1158.75
2022-08-28T07:39:36.215Z,1350.00
2022-08-28T07:40:36.396Z,1316.25
2022-08-28T07:41:36.340Z,1417.50
2022-08-28T07:42:36.416Z,1676.25
2022-08-28T07:43:36.500Z,2328.75
2022-08-28T07:44:36.572Z,3645.00
2022-08-28T07:45:36.718Z,1923.75
2022-08-28T07:46:36.736Z,1850.62
2022-08-28T07:47:36.823Z,1895.62
2022-08-28T07:48:36.907Z,1591.88
2022-08-28T07:49:36.988Z,1957.50
2022-08-28T07:50:37.075Z,1490.62
2022-08-28T07:51:37.128Z,1428.75
2022-08-28T07:52:37.204Z,1524.38
2022-08-28T07:53:37.291Z,1451.25
2022-08-28T07:54:37.383Z,1389.38
2022-08-28T07:55:37.493Z,1417.50
2022-08-28T07:56:37.556Z,1473.75
2022-08-28T07:57:37.626Z,1462.50
2022-08-28T07:58:37.709Z,1586.25
2022-08-28T07:59:37.785Z,2041.88
2022-08-28T08:00:37.884Z,2334.38
2022-08-28T08:01:37.978Z,2238.75
2022-08-28T08:02:38.042Z,3740.62
2022-08-28T08:03:38.186Z,3937.50
2022-08-28T08:04:38.185Z,3498.75
2022-08-28T08:05:38.279Z,2536.88
2022-08-28T08:06:38.323Z,2188.12
2022-08-28T08:07:38.396Z,2233.12
2022-08-28T08:08:38.471Z,1715.62
2022-08-28T08:09:38.543Z,1423.12
2022-08-28T08:10:38.638Z,1276.88
2022-08-28T08:11:38.708Z,1282.50
2022-08-28T08:12:38.792Z,1563.75
2022-08-28T08:13:38.870Z,3183.75
2022-08-28T08:14:38.918Z,1845.00
2022-08-28T08:15:39.085Z,1575.00
2022-08-28T08:16:39.293Z,1845.00
2022-08-28T08:17:39.192Z,1940.62
2022-08-28T08:18:39.280Z,3116.25
2022-08-28T08:19:39.358Z,2812.50
2022-08-28T08:20:39.463Z,1648.12
2022-08-28T08:21:39.535Z,3105.00
2022-08-28T08:22:39.617Z,2491.88
2022-08-28T08:23:39.710Z,2379.38
2022-08-28T08:24:39.797Z,3093.75
2022-08-28T08:25:39.896Z,3060.00
2022-08-28T08:26:39.925Z,3195.00
2022-08-28T08:27:43.077Z,3313.12
2022-08-28T08:28:40.083Z,3234.38
2022-08-28T08:29:40.154Z,3189.38
2022-08-28T08:30:40.252Z,3234.38
2022-08-28T08:31:43.982Z,3195.00
2022-08-28T08:32:40.390Z,3116.25
2022-08-28T08:33:40.466Z,3127.50
2022-08-28T08:34:40.553Z,3195.00
2022-08-28T08:35:40.678Z,3268.12
2022-08-28T08:36:40.686Z,3358.12
2022-08-28T08:37:40.780Z,3330.00
2022-08-28T08:38:40.865Z,3324.38
2022-08-28T08:39:40.958Z,3341.25
2022-08-28T08:40:41.086Z,3228.75
2022-08-28T08:41:41.141Z,3183.75
2022-08-28T08:42:41.224Z,3093.75
2022-08-28T08:43:41.300Z,3178.12
2022-08-28T08:44:41.390Z,765.00
2022-08-28T08:45:41.532Z,2981.25
2022-08-28T08:46:41.580Z,3296.25
2022-08-28T08:47:41.629Z,3195.00
2022-08-28T08:48:41.700Z,3105.00
2022-08-28T08:49:41.809Z,3048.75
2022-08-28T08:50:41.911Z,3037.50
2022-08-28T08:51:41.992Z,3217.50
2022-08-28T08:52:42.079Z,3262.50
2022-08-28T08:53:42.157Z,3121.88
2022-08-28T08:54:42.246Z,3172.50
2022-08-28T08:55:42.345Z,3425.62
2022-08-28T08:56:42.374Z,3560.62
2022-08-28T08:57:42.465Z,3571.88
2022-08-28T08:58:42.528Z,3290.62
2022-08-28T08:59:42.603Z,3166.88
2022-08-28T09:00:42.779Z,3279.38
2022-08-28T09:01:42.837Z,3335.62
2022-08-28T09:02:42.875Z,3352.50
2022-08-28T09:03:43.516Z,3375.00
2022-08-28T09:04:43.007Z,2964.38
2022-08-28T09:05:43.140Z,3071.25
2022-08-28T09:06:43.163Z,2863.12
2022-08-28T09:07:43.323Z,2840.62
2022-08-28T09:08:43.316Z,2947.50
2022-08-28T09:09:43.412Z,2902.50
2022-08-28T09:10:43.508Z,2823.75
2022-08-28T09:11:43.587Z,2806.88
2022-08-28T09:12:43.674Z,2801.25
2022-08-28T09:13:43.755Z,2925.00
2022-08-28T09:14:43.803Z,3116.25
2022-08-28T09:15:46.311Z,742.50
2022-08-28T09:16:43.947Z,1372.50
2022-08-28T09:17:44.022Z,2739.38
2022-08-28T09:18:44.116Z,2728.12
2022-08-28T09:19:44.189Z,2728.12
2022-08-28T09:20:44.338Z,2733.75
2022-08-28T09:21:44.370Z,2728.12
2022-08-28T09:22:44.449Z,2716.88
2022-08-28T09:23:44.517Z,2806.88
2022-08-28T09:24:44.567Z,2913.75
2022-08-28T09:25:44.730Z,2885.62
2022-08-28T09:26:44.696Z,2857.50
2022-08-28T09:27:44.777Z,2041.88
2022-08-28T09:28:44.857Z,1670.62
2022-08-28T09:29:44.932Z,984.38
2022-08-28T09:30:45.120Z,3026.25
2022-08-28T09:31:45.096Z,2941.88
2022-08-28T09:32:45.179Z,2835.00
2022-08-28T09:33:45.253Z,2784.38
2022-08-28T09:34:45.340Z,2840.62
2022-08-28T09:35:45.438Z,2863.12
2022-08-28T09:36:45.488Z,2851.88
2022-08-28T09:37:45.584Z,2885.62
2022-08-28T09:38:45.669Z,2947.50
2022-08-28T09:39:48.854Z,3020.62
2022-08-28T09:40:45.875Z,2874.38
2022-08-28T09:41:45.916Z,2818.12
2022-08-28T09:42:45.989Z,2778.75
2022-08-28T09:43:46.063Z,2711.25
2022-08-28T09:44:46.136Z,2688.75
2022-08-28T09:45:46.211Z,2604.38
2022-08-28T09:46:46.327Z,2598.75
2022-08-28T09:47:47.319Z,2598.75
2022-08-28T09:48:46.474Z,2615.62
2022-08-28T09:49:46.555Z,2536.88
2022-08-28T09:50:46.640Z,2497.50
2022-08-28T09:51:46.682Z,2542.50
2022-08-28T09:52:46.774Z,2542.50
2022-08-28T09:53:46.865Z,2559.38
2022-08-28T09:54:46.936Z,2542.50
2022-08-28T09:55:47.034Z,2542.50
2022-08-28T09:56:47.106Z,2542.50
2022-08-28T09:57:47.188Z,2548.12
2022-08-28T09:58:47.321Z,2587.50
2022-08-28T09:59:47.364Z,2469.38
2022-08-28T10:00:47.453Z,2469.38
2022-08-28T10:01:47.552Z,2441.25
2022-08-28T10:02:47.594Z,2424.38
2022-08-28T10:03:47.676Z,2390.62
2022-08-28T10:04:47.795Z,2295.00
2022-08-28T10:05:47.822Z,2250.00
2022-08-28T10:06:47.903Z,2295.00
2022-08-28T10:07:47.977Z,2311.88
2022-08-28T10:08:48.049Z,2289.38
2022-08-28T10:09:48.189Z,2255.62
2022-08-28T10:10:48.235Z,2205.00
2022-08-28T10:11:48.282Z,2244.38
2022-08-28T10:12:48.392Z,2255.62
2022-08-28T10:13:48.440Z,2227.50
2022-08-28T10:14:48.515Z,2193.75
2022-08-28T10:15:48.638Z,2148.75
2022-08-28T10:16:48.668Z,2047.50
2022-08-28T10:17:48.751Z,2002.50
2022-08-28T10:18:48.826Z,2019.38
2022-08-28T10:19:48.912Z,1991.25
2022-08-28T10:20:49.017Z,1991.25
2022-08-28T10:21:49.048Z,1980.00
2022-08-28T10:22:49.152Z,1783.12
2022-08-28T10:23:49.239Z,1890.00
2022-08-28T10:24:49.331Z,1878.75
2022-08-28T10:25:49.442Z,1901.25
2022-08-28T10:26:49.518Z,1901.25
2022-08-28T10:27:49.586Z,1867.50
2022-08-28T10:28:49.659Z,1833.75
2022-08-28T10:29:49.741Z,1816.88
2022-08-28T10:30:49.882Z,1771.88
2022-08-28T10:31:49.901Z,1738.12
2022-08-28T10:32:49.992Z,1726.88
2022-08-28T10:33:50.073Z,1704.38
2022-08-28T10:34:50.147Z,1665.00
2022-08-28T10:35:50.251Z,1681.88
2022-08-28T10:36:50.306Z,1653.75
2022-08-28T10:37:50.388Z,1614.38
2022-08-28T10:38:52.948Z,1625.62
2022-08-28T10:39:50.532Z,1591.88
2022-08-28T10:40:50.621Z,1546.88
2022-08-28T10:41:50.670Z,1479.38
2022-08-28T10:42:50.735Z,1440.00
2022-08-28T10:43:50.817Z,1428.75
2022-08-28T10:44:50.890Z,1417.50
2022-08-28T10:45:51.016Z,1378.12
2022-08-28T10:46:51.030Z,1355.62
2022-08-28T10:47:51.111Z,1333.12
2022-08-28T10:48:51.188Z,1305.00
2022-08-28T10:49:51.267Z,1276.88
2022-08-28T10:50:51.351Z,1237.50
2022-08-28T10:51:51.426Z,1192.50
2022-08-28T10:52:51.529Z,1130.62
2022-08-28T10:53:51.570Z,939.38
2022-08-28T10:54:51.643Z,669.38
2022-08-28T10:55:51.740Z,523.12
2022-08-28T10:56:56.477Z,466.88
2022-08-28T10:57:51.879Z,444.38
2022-08-28T10:58:51.958Z,421.88
2022-08-28T10:59:52.007Z,416.25
2022-08-28T11:00:52.117Z,410.62
2022-08-28T11:01:52.239Z,405.00
2022-08-28T11:02:52.288Z,399.38
2022-08-28T11:03:52.328Z,399.38
2022-08-28T11:04:56.494Z,399.38
2022-08-28T11:05:53.835Z,393.75
2022-08-28T11:06:52.580Z,399.38
2022-08-28T11:07:52.628Z,393.75
2022-08-28T11:08:52.708Z,393.75
2022-08-28T11:09:52.759Z,393.75
2022-08-28T11:10:52.855Z,388.12
2022-08-28T11:11:52.896Z,388.12
2022-08-28T11:12:52.991Z,388.12
2022-08-28T11:13:53.039Z,382.50
2022-08-28T11:14:53.111Z,382.50
2022-08-28T11:15:53.210Z,382.50
2022-08-28T11:16:53.300Z,376.88
2022-08-28T11:17:53.344Z,376.88
2022-08-28T11:18:53.426Z,376.88
2022-08-28T11:19:53.478Z,376.88
2022-08-28T11:20:53.574Z,371.25
2022-08-28T11:21:53.633Z,371.25
2022-08-28T11:22:53.712Z,365.62
2022-08-28T11:23:53.801Z,365.62
2022-08-28T11:24:55.978Z,365.62
2022-08-28T11:25:54.000Z,360.00
2022-08-28T11:26:54.072Z,360.00
2022-08-28T11:27:54.121Z,354.38
2022-08-28T11:28:54.207Z,354.38
2022-08-28T11:29:54.254Z,354.38
2022-08-28T11:30:54.402Z,348.75
2022-08-28T11:31:54.406Z,348.75
2022-08-28T11:32:54.486Z,348.75
2022-08-28T11:33:54.573Z,343.12
2022-08-28T11:34:54.657Z,343.12
2022-08-28T11:35:54.730Z,343.12
2022-08-28T11:36:54.802Z,337.50
2022-08-28T11:37:54.872Z,337.50
2022-08-28T11:38:54.951Z,337.50
2022-08-28T11:39:55.071Z,337.50
2022-08-28T11:40:55.149Z,331.88
2022-08-28T11:41:55.198Z,331.88
2022-08-28T11:42:55.278Z,331.88
2022-08-28T11:43:55.339Z,326.25
2022-08-28T11:44:55.421Z,326.25
2022-08-28T11:45:55.538Z,320.62
2022-08-28T11:46:55.566Z,320.62
2022-08-28T11:47:55.637Z,320.62
2022-08-28T11:48:55.717Z,315.00
2022-08-28T11:49:55.805Z,315.00
2022-08-28T11:50:55.909Z,315.00
2022-08-28T11:51:55.955Z,315.00
2022-08-28T11:52:56.035Z,315.00
2022-08-28T11:53:56.125Z,315.00
2022-08-28T11:54:56.204Z,309.38
2022-08-28T11:55:56.277Z,309.38
2022-08-28T11:56:56.353Z,309.38
2022-08-28T11:57:56.405Z,303.75
2022-08-28T11:58:56.486Z,303.75
2022-08-28T11:59:56.537Z,303.75
2022-08-28T12:00:56.640Z,303.75
2022-08-28T12:01:56.692Z,303.75
2022-08-28T12:02:56.863Z,298.12
2022-08-28T12:03:56.897Z,298.12
2022-08-28T12:04:56.929Z,298.12
2022-08-28T12:05:57.034Z,298.12
2022-08-28T12:06:57.105Z,298.12
2022-08-28T12:07:57.191Z,298.12
2022-08-28T12:08:57.272Z,292.50
2022-08-28T12:10:00.674Z,292.50
2022-08-28T12:10:57.470Z,292.50
2022-08-28T12:11:57.515Z,292.50
2022-08-28T12:12:57.594Z,292.50
2022-08-28T12:13:57.672Z,292.50
2022-08-28T12:14:57.750Z,292.50
2022-08-28T12:15:57.878Z,292.50
2022-08-28T12:16:57.920Z,292.50
2022-08-28T12:17:57.969Z,292.50
2022-08-28T12:18:58.058Z,292.50
2022-08-28T12:19:58.109Z,286.88
2022-08-28T12:20:58.206Z,286.88
2022-08-28T12:21:58.250Z,286.88
2022-08-28T12:22:58.339Z,286.88
2022-08-28T12:23:59.232Z,286.88
2022-08-28T12:24:58.497Z,286.88
2022-08-28T12:25:58.611Z,286.88
2022-08-28T12:26:58.670Z,286.88
2022-08-28T12:27:58.757Z,286.88
2022-08-28T12:28:58.852Z,286.88
2022-08-28T12:29:58.903Z,286.88
2022-08-28T12:30:59.091Z,286.88
2022-08-28T12:31:59.045Z,286.88
2022-08-28T12:32:59.129Z,286.88
2022-08-28T12:33:59.178Z,286.88
2022-08-28T12:34:59.277Z,286.88
2022-08-28T12:35:59.457Z,286.88
2022-08-28T12:36:59.435Z,281.25
2022-08-28T12:37:59.488Z,281.25
2022-08-28T12:38:59.571Z,281.25
2022-08-28T12:39:59.670Z,281.25